createdAt,value
2019-02-23T00:01:01.284Z,82.84
2019-02-23T00:03:31.073Z,83.27
2019-02-23T00:06:01.775Z,82.81
2019-02-23T00:08:31.441Z,82.72
2019-02-23T00:11:01.245Z,83.08
2019-02-23T00:13:31.109Z,83.36
2019-02-23T00:16:00.965Z,83.67
2019-02-23T00:18:30.835Z,83.58
2019-02-23T00:21:00.657Z,83.73
2019-02-23T00:23:30.549Z,83.65
2019-02-23T00:26:00.254Z,83.69
2019-02-23T00:28:29.939Z,83.93
2019-02-23T00:30:59.693Z,84.27
2019-02-23T00:33:29.379Z,83.90
2019-02-23T00:35:59.133Z,83.89
2019-02-23T00:38:29.144Z,83.80
2019-02-23T00:40:58.841Z,84.08
2019-02-23T00:43:28.501Z,84.19
2019-02-23T00:45:58.296Z,83.95
2019-02-23T00:48:27.945Z,84.07
2019-02-23T00:50:57.772Z,84.03
2019-02-23T00:53:27.464Z,84.00
2019-02-23T00:55:57.230Z,84.25
2019-02-23T00:58:26.905Z,84.32
2019-02-23T01:00:56.587Z,84.53
2019-02-23T01:03:26.366Z,84.30
2019-02-23T01:05:56.185Z,84.49
2019-02-23T01:08:25.992Z,84.69
2019-02-23T01:10:58.387Z,84.65
2019-02-23T01:13:27.324Z,84.73
2019-02-23T01:15:58.494Z,84.97
2019-02-23T01:18:28.524Z,84.95
2019-02-23T01:20:58.231Z,84.98
2019-02-23T01:23:28.065Z,84.72
2019-02-23T01:25:57.816Z,84.92
2019-02-23T01:28:27.642Z,85.03
2019-02-23T01:30:57.436Z,84.88
2019-02-23T01:33:27.156Z,85.06
2019-02-23T01:35:56.859Z,85.29
2019-02-23T01:38:26.666Z,85.46
2019-02-23T01:40:56.431Z,85.47
2019-02-23T01:43:26.361Z,85.53
2019-02-23T01:45:56.218Z,85.57
2019-02-23T01:48:26.052Z,85.40
2019-02-23T01:50:55.885Z,85.36
2019-02-23T01:53:25.618Z,85.27
2019-02-23T01:55:55.453Z,85.44
2019-02-23T01:58:25.278Z,85.16
2019-02-23T02:00:55.215Z,85.04
2019-02-23T02:03:25.130Z,85.11
2019-02-23T02:05:54.957Z,85.20
2019-02-23T02:08:24.773Z,85.51
2019-02-23T02:10:54.539Z,85.67
2019-02-23T02:13:24.844Z,85.58
2019-02-23T02:15:54.755Z,86.13
2019-02-23T02:18:24.461Z,85.44
2019-02-23T02:20:54.308Z,85.07
2019-02-23T02:23:24.004Z,84.96
2019-02-23T02:25:53.755Z,85.45
2019-02-23T02:28:23.592Z,85.01
2019-02-23T02:30:53.422Z,85.38
2019-02-23T02:33:25.248Z,85.90
2019-02-23T02:35:54.974Z,85.95
2019-02-23T02:38:24.790Z,85.68
2019-02-23T02:40:54.514Z,86.17
2019-02-23T02:43:24.391Z,86.49
2019-02-23T02:45:54.186Z,86.44
2019-02-23T02:48:23.845Z,86.33
2019-02-23T02:50:53.503Z,86.14
2019-02-23T02:53:23.452Z,85.63
2019-02-23T02:55:53.129Z,85.58
2019-02-23T02:58:22.866Z,85.38
2019-02-23T03:00:52.559Z,85.09
2019-02-23T03:03:22.324Z,84.91
2019-02-23T03:05:52.170Z,84.95
2019-02-23T03:08:21.954Z,85.18
2019-02-23T03:10:51.693Z,84.95
2019-02-23T03:13:21.409Z,84.89
2019-02-23T03:15:51.480Z,84.54
2019-02-23T03:18:21.290Z,84.66
2019-02-23T03:20:50.944Z,84.63
2019-02-23T03:23:20.687Z,84.72
2019-02-23T03:25:50.491Z,84.09
2019-02-23T03:28:20.189Z,84.20
2019-02-23T03:30:49.870Z,83.96
2019-02-23T03:33:19.580Z,84.99
2019-02-23T03:35:49.325Z,85.20
2019-02-23T03:38:19.032Z,84.94
2019-02-23T03:40:48.759Z,84.61
2019-02-23T03:43:18.510Z,84.66
2019-02-23T03:45:48.314Z,84.62
2019-02-23T03:48:18.137Z,84.01
2019-02-23T03:50:49.515Z,84.16
2019-02-23T03:53:19.593Z,84.37
2019-02-23T03:55:49.383Z,84.61
2019-02-23T03:58:19.173Z,83.95
2019-02-23T04:00:48.995Z,84.43
2019-02-23T04:03:18.753Z,84.64
2019-02-23T04:05:48.691Z,84.89
2019-02-23T04:08:18.448Z,84.23
2019-02-23T04:10:48.256Z,84.63
2019-02-23T04:13:18.152Z,84.74
2019-02-23T04:15:47.940Z,84.89
2019-02-23T04:18:17.630Z,85.24
2019-02-23T04:20:47.379Z,85.04
2019-02-23T04:23:17.423Z,84.90
2019-02-23T04:25:47.100Z,84.47
2019-02-23T04:28:16.780Z,84.20
2019-02-23T04:30:46.453Z,83.76
2019-02-23T04:33:16.149Z,83.54
2019-02-23T04:35:46.632Z,83.19
2019-02-23T04:38:16.441Z,83.12
2019-02-23T04:40:46.096Z,82.62
2019-02-23T04:43:15.791Z,82.90
2019-02-23T04:45:45.464Z,83.58
2019-02-23T04:48:15.167Z,84.31
2019-02-23T04:50:44.917Z,84.54
2019-02-23T04:53:14.670Z,84.36
2019-02-23T04:55:44.411Z,83.93
2019-02-23T04:58:14.086Z,84.31
2019-02-23T05:00:44.992Z,84.49
2019-02-23T05:03:14.893Z,84.58
2019-02-23T05:05:44.739Z,83.76
2019-02-23T05:08:14.456Z,83.13
2019-02-23T05:10:44.220Z,82.80
2019-02-23T05:13:14.029Z,83.12
2019-02-23T05:15:43.757Z,83.21
2019-02-23T05:18:13.465Z,83.15
2019-02-23T05:20:43.144Z,82.85
2019-02-23T05:23:12.992Z,82.24
2019-02-23T05:25:42.793Z,82.26
2019-02-23T05:28:12.607Z,82.08
2019-02-23T05:30:43.273Z,81.92
2019-02-23T05:33:12.941Z,81.63
2019-02-23T05:35:42.674Z,81.50
2019-02-23T05:38:12.400Z,81.11
2019-02-23T05:40:42.071Z,81.43
2019-02-23T05:43:11.959Z,81.57
2019-02-23T05:45:41.767Z,81.74
2019-02-23T05:48:11.488Z,81.63
2019-02-23T05:50:41.310Z,81.90
2019-02-23T05:53:11.002Z,81.86
2019-02-23T05:55:40.961Z,81.84
2019-02-23T05:58:10.779Z,81.86
2019-02-23T06:00:40.600Z,81.83
2019-02-23T06:03:19.328Z,81.08
2019-02-23T06:05:49.059Z,81.48
2019-02-23T06:08:18.841Z,81.26
2019-02-23T06:10:48.757Z,81.25
2019-02-23T06:13:18.611Z,81.52
2019-02-23T06:15:48.453Z,81.17
2019-02-23T06:18:18.236Z,81.06
2019-02-23T06:20:47.976Z,81.08
2019-02-23T06:23:17.717Z,80.90
2019-02-23T06:25:47.516Z,80.94
2019-02-23T06:28:17.322Z,81.01
2019-02-23T06:30:47.013Z,80.52
2019-02-23T06:33:16.713Z,80.50
2019-02-23T06:35:46.439Z,80.37
2019-02-23T06:38:16.148Z,80.89
2019-02-23T06:40:45.921Z,80.33
2019-02-23T06:43:15.679Z,80.30
2019-02-23T06:45:45.417Z,80.51
2019-02-23T06:48:15.304Z,80.65
2019-02-23T06:50:44.998Z,80.80
2019-02-23T06:53:14.807Z,80.80
2019-02-23T06:55:44.502Z,80.32
2019-02-23T06:58:14.183Z,80.23
2019-02-23T07:00:43.922Z,79.89
2019-02-23T07:03:13.671Z,79.45
2019-02-23T07:05:43.431Z,79.48
2019-02-23T07:08:13.225Z,79.40
2019-02-23T07:10:43.116Z,79.09
2019-02-23T07:13:12.879Z,79.31
2019-02-23T07:15:42.812Z,79.13
2019-02-23T07:18:12.502Z,79.19
2019-02-23T07:20:44.446Z,79.24
2019-02-23T07:23:13.745Z,79.10
2019-02-23T07:25:43.472Z,79.46
2019-02-23T07:28:13.194Z,79.37
2019-02-23T07:30:43.165Z,79.25
2019-02-23T07:33:13.082Z,79.24
2019-02-23T07:35:42.895Z,79.14
2019-02-23T07:38:12.712Z,79.16
2019-02-23T07:40:42.467Z,79.17
2019-02-23T07:43:12.322Z,79.10
2019-02-23T07:45:42.238Z,78.72
2019-02-23T07:48:11.945Z,78.78
2019-02-23T07:50:41.875Z,78.86
2019-02-23T07:53:11.848Z,78.64
2019-02-23T07:55:42.733Z,78.39
2019-02-23T07:58:12.590Z,78.09
2019-02-23T08:00:42.565Z,77.44
2019-02-23T08:03:12.350Z,77.02
2019-02-23T08:05:42.031Z,76.81
2019-02-23T08:08:11.776Z,76.61
2019-02-23T08:10:42.192Z,76.37
2019-02-23T08:13:13.486Z,75.80
2019-02-23T08:15:50.312Z,74.73
2019-02-23T08:18:20.057Z,74.56
2019-02-23T08:20:49.849Z,74.35
2019-02-23T08:23:19.659Z,74.25
2019-02-23T08:25:49.461Z,73.85
2019-02-23T08:28:19.193Z,73.78
2019-02-23T08:30:48.963Z,72.73
2019-02-23T08:33:18.762Z,72.32
2019-02-23T08:35:48.493Z,72.15
2019-02-23T08:38:18.616Z,71.57
2019-02-23T08:40:48.381Z,71.45
2019-02-23T08:43:20.774Z,71.31
2019-02-23T08:45:50.907Z,70.83
2019-02-23T08:48:20.953Z,69.87
2019-02-23T08:50:50.929Z,69.46
2019-02-23T08:53:21.794Z,68.87
2019-02-23T08:55:51.581Z,69.13
2019-02-23T08:58:21.283Z,69.04
2019-02-23T09:00:51.097Z,67.94
2019-02-23T09:03:20.784Z,67.54
2019-02-23T09:05:51.157Z,67.18
2019-02-23T09:08:21.056Z,66.62
2019-02-23T09:10:50.803Z,65.43
2019-02-23T09:13:31.808Z,65.54
2019-02-23T09:16:01.983Z,66.49
2019-02-23T09:18:31.735Z,67.74
2019-02-23T09:21:04.464Z,64.79
2019-02-23T09:23:34.320Z,63.93
2019-02-23T09:26:04.216Z,64.03
2019-02-23T09:28:34.157Z,63.87
2019-02-23T09:31:04.246Z,63.19
2019-02-23T09:33:35.769Z,61.84
2019-02-23T09:36:05.745Z,61.68
2019-02-23T09:38:36.859Z,61.33
2019-02-23T09:41:07.959Z,61.68
2019-02-23T09:43:59.219Z,60.59
2019-02-23T09:46:29.245Z,61.13
2019-02-23T09:48:59.395Z,60.62
2019-02-23T09:51:29.404Z,60.78
2019-02-23T09:53:59.443Z,61.17
2019-02-23T09:56:30.190Z,60.42
2019-02-23T09:59:00.018Z,63.70
2019-02-23T10:01:29.945Z,59.32
2019-02-23T10:03:59.965Z,58.59
2019-02-23T10:06:29.759Z,58.74
2019-02-23T10:08:59.681Z,57.88
2019-02-23T10:11:29.540Z,56.86
2019-02-23T10:13:59.233Z,57.12
2019-02-23T10:16:29.075Z,56.82
2019-02-23T10:18:59.035Z,57.33
2019-02-23T10:21:29.013Z,57.23
2019-02-23T10:23:58.860Z,56.75
2019-02-23T10:26:28.553Z,56.51
2019-02-23T10:28:58.599Z,55.50
2019-02-23T10:31:31.072Z,54.98
2019-02-23T10:34:00.835Z,55.48
2019-02-23T10:36:30.781Z,55.16
2019-02-23T10:39:00.612Z,55.34
2019-02-23T10:41:30.321Z,55.37
2019-02-23T10:44:00.180Z,55.56
2019-02-23T10:46:29.897Z,54.90
2019-02-23T10:48:59.589Z,54.89
2019-02-23T10:51:32.242Z,54.62
2019-02-23T10:54:02.179Z,54.64
2019-02-23T10:56:32.024Z,53.92
2019-02-23T10:59:01.862Z,54.03
2019-02-23T11:01:31.752Z,54.31
2019-02-23T11:04:01.499Z,53.02
2019-02-23T11:06:31.350Z,52.69
2019-02-23T11:09:01.216Z,53.06
2019-02-23T11:11:31.156Z,52.83
2019-02-23T11:14:00.906Z,51.85
2019-02-23T11:16:30.791Z,51.46
2019-02-23T11:19:00.625Z,51.30
2019-02-23T11:21:30.906Z,51.87
2019-02-23T11:24:00.918Z,51.92
2019-02-23T11:26:31.322Z,51.24
2019-02-23T11:29:07.223Z,50.38
2019-02-23T11:31:37.296Z,49.85
2019-02-23T11:34:07.358Z,49.10
2019-02-23T11:36:37.165Z,48.32
2019-02-23T11:39:07.644Z,48.31
2019-02-23T11:41:40.477Z,48.74
2019-02-23T11:44:10.674Z,49.40
2019-02-23T11:46:59.331Z,49.52
2019-02-23T11:49:11.995Z,49.49
2019-02-23T11:51:41.820Z,49.22
2019-02-23T11:54:11.817Z,48.27
2019-02-23T11:56:41.582Z,47.79
2019-02-23T11:59:11.361Z,47.83
2019-02-23T12:01:41.325Z,47.81
2019-02-23T12:04:11.704Z,48.35
2019-02-23T12:06:43.585Z,48.52
2019-02-23T12:09:15.360Z,48.49
2019-02-23T12:11:46.502Z,48.82
2019-02-23T12:14:16.852Z,48.23
2019-02-23T12:16:46.863Z,48.49
2019-02-23T12:19:16.996Z,48.07
2019-02-23T12:21:46.795Z,47.88
2019-02-23T12:24:17.096Z,47.48
2019-02-23T12:26:47.359Z,47.21
2019-02-23T12:29:18.011Z,47.48
2019-02-23T12:31:48.417Z,46.77
2019-02-23T12:34:19.524Z,46.83
2019-02-23T12:36:49.656Z,46.51
2019-02-23T12:39:19.667Z,46.41
2019-02-23T12:41:52.343Z,46.06
2019-02-23T12:44:22.228Z,45.85
2019-02-23T12:46:52.276Z,46.03
2019-02-23T12:49:22.451Z,46.01
2019-02-23T12:51:52.333Z,45.11
2019-02-23T12:54:22.350Z,44.74
2019-02-23T12:56:52.371Z,42.52
2019-02-23T12:59:22.589Z,42.30
2019-02-23T13:01:55.587Z,41.89
2019-02-23T13:04:25.922Z,40.74
2019-02-23T13:06:55.694Z,39.41
2019-02-23T13:09:31.679Z,38.75
2019-02-23T13:12:21.019Z,38.61
2019-02-23T13:15:10.443Z,37.69
2019-02-23T13:18:13.639Z,38.58
2019-02-23T13:21:11.717Z,36.96
2019-02-23T13:24:07.026Z,36.02
2019-02-23T13:26:50.052Z,35.69
2019-02-23T13:29:48.316Z,35.90
2019-02-23T13:32:55.197Z,35.65
2019-02-23T13:35:41.286Z,33.65
2019-02-23T13:38:33.436Z,33.82
2019-02-23T13:41:28.674Z,33.33
2019-02-23T13:44:35.443Z,33.85
2019-02-23T13:47:12.351Z,36.78
2019-02-23T13:50:10.531Z,34.56
2019-02-23T13:53:05.621Z,39.35
2019-02-23T13:56:14.737Z,33.09
2019-02-23T13:59:05.099Z,32.21
2019-02-23T14:02:12.565Z,32.24
2019-02-23T14:05:13.167Z,32.17
2019-02-23T14:08:12.657Z,31.88
2019-02-23T14:11:04.674Z,31.38
2019-02-23T14:14:02.961Z,30.92
2019-02-23T14:17:01.100Z,31.31
2019-02-23T14:20:08.393Z,31.38
2019-02-23T14:23:15.466Z,31.54
2019-02-23T14:25:57.098Z,31.57
2019-02-23T14:28:49.116Z,31.55
2019-02-23T14:31:52.016Z,31.77
2019-02-23T14:34:26.311Z,32.18
2019-02-23T14:37:24.667Z,31.70
2019-02-23T14:40:39.551Z,31.51
2019-02-23T14:45:25.872Z,33.51
2019-02-23T14:48:24.483Z,31.51
2019-02-23T14:51:29.058Z,30.83
2019-02-23T14:54:09.037Z,31.01
2019-02-23T14:56:57.632Z,31.47
2019-02-23T14:59:40.646Z,33.15
2019-02-23T15:02:53.155Z,34.61
2019-02-23T15:05:59.283Z,31.93
2019-02-23T15:08:45.581Z,31.37
2019-02-23T15:11:34.841Z,30.47
2019-02-23T15:14:27.041Z,30.49
2019-02-23T15:17:26.095Z,30.62
2019-02-23T15:20:17.187Z,31.32
2019-02-23T15:23:15.636Z,31.35
2019-02-23T15:26:10.661Z,31.79
2019-02-23T15:29:17.886Z,31.33
2019-02-23T15:32:19.669Z,31.76
2019-02-23T15:35:20.835Z,30.36
2019-02-23T15:38:07.078Z,30.92
2019-02-23T15:41:23.754Z,31.89
2019-02-23T15:44:07.002Z,30.97
2019-02-23T15:46:52.724Z,30.94
2019-02-23T15:49:33.262Z,31.43
2019-02-23T15:52:04.328Z,31.54
2019-02-23T15:54:34.312Z,31.48
2019-02-23T15:57:04.395Z,31.63
2019-02-23T15:59:34.139Z,32.07
2019-02-23T16:02:03.888Z,32.42
2019-02-23T16:04:33.795Z,32.82
2019-02-23T16:07:03.894Z,33.33
2019-02-23T16:09:33.696Z,33.29
2019-02-23T16:12:03.499Z,33.20
2019-02-23T16:14:33.196Z,35.62
2019-02-23T16:17:02.963Z,33.16
2019-02-23T16:19:32.705Z,32.82
2019-02-23T16:22:02.518Z,33.24
2019-02-23T16:24:32.239Z,33.34
2019-02-23T16:27:01.980Z,33.78
2019-02-23T16:29:31.698Z,33.73
2019-02-23T16:32:01.491Z,33.61
2019-02-23T16:34:31.155Z,33.87
2019-02-23T16:37:00.833Z,34.46
2019-02-23T16:39:30.488Z,34.66
2019-02-23T16:42:00.274Z,34.70
2019-02-23T16:44:31.578Z,35.00
2019-02-23T16:47:01.351Z,34.93
2019-02-23T16:49:31.012Z,35.14
2019-02-23T16:52:00.729Z,35.05
2019-02-23T16:54:30.465Z,35.39
2019-02-23T16:57:00.209Z,35.48
2019-02-23T16:59:30.240Z,35.77
2019-02-23T17:02:00.034Z,36.78
2019-02-23T17:04:31.845Z,41.62
2019-02-23T17:07:02.031Z,38.46
2019-02-23T17:09:31.744Z,38.01
2019-02-23T17:12:01.972Z,39.93
2019-02-23T17:14:31.940Z,39.62
2019-02-23T17:17:01.673Z,39.01
2019-02-23T17:19:31.432Z,38.28
2019-02-23T17:22:02.508Z,38.13
2019-02-23T17:24:32.294Z,38.91
2019-02-23T17:27:01.978Z,40.54
2019-02-23T17:29:31.676Z,39.40
2019-02-23T17:32:01.366Z,39.35
2019-02-23T17:34:31.058Z,39.22
2019-02-23T17:37:00.973Z,44.06
2019-02-23T17:39:30.706Z,40.85
2019-02-23T17:42:00.354Z,40.75
2019-02-23T17:44:31.673Z,39.72
2019-02-23T17:47:01.586Z,39.90
2019-02-23T17:49:31.281Z,39.70
2019-02-23T17:52:01.756Z,40.61
2019-02-23T17:54:31.442Z,41.68
2019-02-23T17:57:01.188Z,41.32
2019-02-23T17:59:30.949Z,40.49
2019-02-23T18:02:00.798Z,40.44
2019-02-23T18:04:30.465Z,40.31
2019-02-23T18:07:00.447Z,40.26
2019-02-23T18:09:30.159Z,40.37
2019-02-23T18:11:59.974Z,40.25
2019-02-23T18:14:29.710Z,40.38
2019-02-23T18:16:59.507Z,40.74
2019-02-23T18:19:29.245Z,41.04
2019-02-23T18:21:58.921Z,41.17
2019-02-23T18:24:28.616Z,41.46
2019-02-23T18:26:58.316Z,41.75
2019-02-23T18:29:28.051Z,41.71
2019-02-23T18:31:57.867Z,41.55
2019-02-23T18:34:27.690Z,41.87
2019-02-23T18:36:57.385Z,42.02
2019-02-23T18:39:27.045Z,42.05
2019-02-23T18:41:56.928Z,43.12
2019-02-23T18:44:26.619Z,43.34
2019-02-23T18:46:56.432Z,43.91
2019-02-23T18:49:26.115Z,44.02
2019-02-23T18:51:55.807Z,43.81
2019-02-23T18:54:25.610Z,44.22
2019-02-23T18:56:55.316Z,44.33
2019-02-23T18:59:24.993Z,44.44
2019-02-23T19:01:54.778Z,44.91
2019-02-23T19:04:24.439Z,45.24
2019-02-23T19:06:54.146Z,45.40
2019-02-23T19:09:23.774Z,45.34
2019-02-23T19:11:53.443Z,45.50
2019-02-23T19:14:23.444Z,45.53
2019-02-23T19:16:53.207Z,45.89
2019-02-23T19:19:23.834Z,45.93
2019-02-23T19:21:53.535Z,45.80
2019-02-23T19:24:23.200Z,45.61
2019-02-23T19:26:53.010Z,45.79
2019-02-23T19:29:22.778Z,45.85
2019-02-23T19:31:52.433Z,45.67
2019-02-23T19:34:22.169Z,45.39
2019-02-23T19:36:51.830Z,45.32
2019-02-23T19:39:21.509Z,44.97
2019-02-23T19:41:51.488Z,44.80
2019-02-23T19:44:21.214Z,44.60
2019-02-23T19:46:53.395Z,44.80
2019-02-23T19:49:23.106Z,44.94
2019-02-23T19:51:52.751Z,45.10
2019-02-23T19:54:22.530Z,45.09
2019-02-23T19:56:52.259Z,45.13
2019-02-23T19:59:21.945Z,44.90
2019-02-23T20:01:51.602Z,45.10
2019-02-23T20:04:21.340Z,44.75
2019-02-23T20:06:51.023Z,44.36
2019-02-23T20:09:20.806Z,44.31
2019-02-23T20:11:50.527Z,44.48
2019-02-23T20:14:20.282Z,44.19
2019-02-23T20:16:50.021Z,43.84
2019-02-23T20:19:19.840Z,43.60
2019-02-23T20:21:49.668Z,43.71
2019-02-23T20:24:19.346Z,43.83
2019-02-23T20:26:55.441Z,44.95
2019-02-23T20:29:20.511Z,44.22
2019-02-23T20:31:50.190Z,43.94
2019-02-23T20:34:19.937Z,43.86
2019-02-23T20:36:49.896Z,43.88
2019-02-23T20:39:19.682Z,43.80
2019-02-23T20:41:49.480Z,44.03
2019-02-23T20:44:19.123Z,44.04
2019-02-23T20:46:48.806Z,43.95
2019-02-23T20:49:18.783Z,44.01
2019-02-23T20:51:48.567Z,43.97
2019-02-23T20:54:18.284Z,44.12
2019-02-23T20:56:47.921Z,44.03
2019-02-23T20:59:17.767Z,44.04
2019-02-23T21:01:47.408Z,44.21
2019-02-23T21:04:17.159Z,44.08
2019-02-23T21:06:46.907Z,44.13
2019-02-23T21:09:16.659Z,44.12
2019-02-23T21:11:46.457Z,44.02
2019-02-23T21:14:16.237Z,44.09
2019-02-23T21:16:45.896Z,44.16
2019-02-23T21:19:15.640Z,44.18
2019-02-23T21:21:45.398Z,44.21
2019-02-23T21:24:15.065Z,44.11
2019-02-23T21:26:44.942Z,43.96
2019-02-23T21:29:14.783Z,43.78
2019-02-23T21:31:44.647Z,43.92
2019-02-23T21:34:14.389Z,43.86
2019-02-23T21:36:44.095Z,43.82
2019-02-23T21:39:13.860Z,43.85
2019-02-23T21:41:43.612Z,44.10
2019-02-23T21:44:13.363Z,43.94
2019-02-23T21:46:43.127Z,44.02
2019-02-23T21:49:12.819Z,43.56
2019-02-23T21:51:42.608Z,43.49
2019-02-23T21:54:12.285Z,43.27
2019-02-23T21:56:41.970Z,43.23
2019-02-23T21:59:11.697Z,43.21
2019-02-23T22:01:41.357Z,43.30
2019-02-23T22:04:11.143Z,43.35
2019-02-23T22:06:41.060Z,43.08
2019-02-23T22:09:10.797Z,43.18
2019-02-23T22:11:40.567Z,43.00
2019-02-23T22:14:10.317Z,43.05
2019-02-23T22:16:40.079Z,42.95
2019-02-23T22:19:10.063Z,42.97
2019-02-23T22:21:39.799Z,42.81
2019-02-23T22:24:09.557Z,42.62
2019-02-23T22:26:39.270Z,42.59
2019-02-23T22:29:09.071Z,42.94
2019-02-23T22:31:38.853Z,42.98
2019-02-23T22:34:08.606Z,43.45
2019-02-23T22:36:38.308Z,43.74
2019-02-23T22:39:08.909Z,43.80
2019-02-23T22:41:38.632Z,43.56
2019-02-23T22:44:08.397Z,43.83
2019-02-23T22:46:38.039Z,43.55
2019-02-23T22:49:07.706Z,43.80
2019-02-23T22:51:37.402Z,43.88
2019-02-23T22:54:07.130Z,44.02
2019-02-23T22:56:36.901Z,43.97
2019-02-23T22:59:06.564Z,44.11
2019-02-23T23:01:36.477Z,44.13
2019-02-23T23:04:06.412Z,44.07
2019-02-23T23:06:36.238Z,44.23
2019-02-23T23:09:08.355Z,44.21
2019-02-23T23:11:38.283Z,44.61
2019-02-23T23:14:07.959Z,44.66
2019-02-23T23:16:37.728Z,44.44
2019-02-23T23:19:07.466Z,44.44
2019-02-23T23:21:37.196Z,44.44
2019-02-23T23:24:06.910Z,44.65
2019-02-23T23:26:36.660Z,44.67
2019-02-23T23:29:06.362Z,44.58
2019-02-23T23:31:36.077Z,44.40
2019-02-23T23:34:05.785Z,44.21
2019-02-23T23:36:35.453Z,44.05
2019-02-23T23:39:06.568Z,44.27
2019-02-23T23:41:36.228Z,44.12
2019-02-23T23:44:05.891Z,44.12
2019-02-23T23:46:35.628Z,44.10
2019-02-23T23:49:05.311Z,44.41
2019-02-23T23:51:34.989Z,44.44
2019-02-23T23:54:04.818Z,44.26
2019-02-23T23:56:34.586Z,44.16
2019-02-23T23:59:04.416Z,44.39
